createdAt,value
2018-05-08T00:00:28.879Z,2.30
2018-05-08T00:02:57.790Z,2.60
2018-05-08T00:05:26.700Z,2.40
2018-05-08T00:07:56.380Z,3.07
2018-05-08T00:10:25.334Z,2.40
2018-05-08T00:12:55.416Z,2.87
2018-05-08T00:15:25.696Z,2.20
2018-05-08T00:17:54.390Z,2.23
2018-05-08T00:20:23.699Z,2.47
2018-05-08T00:22:52.612Z,2.30
2018-05-08T00:25:22.416Z,2.87
2018-05-08T00:27:52.080Z,2.60
2018-05-08T00:30:22.361Z,2.97
2018-05-08T00:32:51.823Z,2.97
2018-05-08T00:35:20.769Z,2.60
2018-05-08T00:37:49.686Z,2.67
2018-05-08T00:40:18.609Z,2.60
2018-05-08T00:42:47.518Z,2.63
2018-05-08T00:45:16.430Z,2.00
2018-05-08T00:47:45.339Z,2.70
2018-05-08T00:50:14.266Z,2.77
2018-05-08T00:52:43.175Z,2.93
2018-05-08T00:55:12.864Z,2.77
2018-05-08T00:57:42.164Z,2.23
2018-05-08T01:00:11.488Z,2.53
2018-05-08T01:02:41.155Z,2.60
2018-05-08T01:05:10.481Z,3.07
2018-05-08T01:07:40.152Z,2.43
2018-05-08T01:10:09.862Z,2.37
2018-05-08T01:12:38.774Z,2.63
2018-05-08T01:15:07.669Z,2.40
2018-05-08T01:17:37.356Z,2.30
2018-05-08T01:20:07.812Z,2.47
2018-05-08T01:22:36.722Z,2.43
2018-05-08T01:25:06.030Z,2.77
2018-05-08T01:27:35.357Z,2.60
2018-05-08T01:30:04.264Z,2.60
2018-05-08T01:32:33.187Z,2.83
2018-05-08T01:35:02.492Z,2.40
2018-05-08T01:37:32.177Z,3.17
2018-05-08T01:40:01.471Z,2.57
2018-05-08T01:42:30.386Z,2.70
2018-05-08T01:44:59.687Z,3.00
2018-05-08T01:47:28.617Z,3.20
2018-05-08T01:49:57.908Z,3.10
2018-05-08T01:52:26.961Z,2.67
2018-05-08T01:54:57.350Z,2.13
2018-05-08T01:57:26.681Z,3.10
2018-05-08T01:59:56.950Z,3.03
2018-05-08T02:02:25.660Z,3.13
2018-05-08T02:04:54.950Z,2.73
2018-05-08T02:07:25.233Z,2.97
2018-05-08T02:09:55.456Z,3.53
2018-05-08T02:12:25.158Z,3.00
2018-05-08T02:14:54.815Z,3.27
2018-05-08T02:17:24.514Z,2.93
2018-05-08T02:19:53.440Z,2.53
2018-05-08T02:22:22.760Z,2.80
2018-05-08T02:24:53.028Z,3.23
2018-05-08T02:27:22.499Z,2.57
2018-05-08T02:29:51.413Z,2.57
2018-05-08T02:32:20.345Z,2.80
2018-05-08T02:34:49.252Z,3.03
2018-05-08T02:37:18.962Z,4.30
2018-05-08T02:39:48.632Z,2.90
2018-05-08T02:42:18.920Z,2.80
2018-05-08T02:44:48.406Z,2.87
2018-05-08T02:47:18.095Z,2.97
2018-05-08T02:49:47.398Z,3.00
2018-05-08T02:52:17.472Z,2.67
2018-05-08T02:54:47.162Z,2.33
2018-05-08T02:57:16.104Z,2.90
2018-05-08T02:59:45.413Z,2.87
2018-05-08T03:02:14.809Z,3.13
2018-05-08T03:04:44.488Z,2.90
2018-05-08T03:07:13.420Z,3.13
2018-05-08T03:09:42.329Z,3.00
2018-05-08T03:12:11.256Z,3.17
2018-05-08T03:14:40.941Z,2.70
2018-05-08T03:17:09.842Z,3.00
2018-05-08T03:19:39.538Z,3.07
2018-05-08T03:22:09.811Z,2.87
2018-05-08T03:24:39.267Z,2.87
2018-05-08T03:27:08.167Z,2.97
2018-05-08T03:29:37.484Z,3.70
2018-05-08T03:32:06.402Z,3.13
2018-05-08T03:34:36.085Z,3.03
2018-05-08T03:37:04.990Z,3.27
2018-05-08T03:39:35.257Z,4.00
2018-05-08T03:42:05.475Z,2.73
2018-05-08T03:44:34.400Z,3.00
2018-05-08T03:47:03.325Z,3.60
2018-05-08T03:49:32.242Z,3.33
2018-05-08T03:52:01.165Z,2.70
2018-05-08T03:54:30.503Z,3.50
2018-05-08T03:57:00.197Z,2.57
2018-05-08T03:59:30.012Z,3.20
2018-05-08T04:02:12.228Z,2.90
2018-05-08T04:04:52.853Z,2.60
2018-05-08T04:07:33.531Z,2.77
2018-05-08T04:10:02.447Z,3.30
2018-05-08T04:12:31.356Z,2.50
2018-05-08T04:15:01.472Z,3.10
2018-05-08T04:17:31.152Z,3.17
2018-05-08T04:20:00.090Z,3.40
2018-05-08T04:22:29.765Z,2.93
2018-05-08T04:25:00.677Z,3.40
2018-05-08T04:27:29.590Z,3.40
2018-05-08T04:29:59.286Z,3.37
2018-05-08T04:32:28.595Z,2.77
2018-05-08T04:34:58.880Z,3.33
2018-05-08T04:37:27.567Z,3.13
2018-05-08T04:39:56.897Z,2.93
2018-05-08T04:42:26.587Z,3.00
2018-05-08T04:44:55.499Z,2.87
2018-05-08T04:47:24.487Z,2.87
2018-05-08T04:49:54.290Z,3.13
2018-05-08T04:52:23.601Z,3.30
2018-05-08T04:54:53.873Z,3.10
2018-05-08T04:57:22.582Z,3.27
2018-05-08T04:59:51.502Z,2.83
2018-05-08T05:02:21.790Z,2.73
2018-05-08T05:04:51.606Z,3.53
2018-05-08T05:07:20.557Z,3.43
2018-05-08T05:09:49.479Z,2.87
2018-05-08T05:12:19.747Z,3.20
2018-05-08T05:14:49.797Z,3.47
2018-05-08T05:17:18.519Z,3.20
2018-05-08T05:19:47.854Z,3.00
2018-05-08T05:22:17.546Z,3.03
2018-05-08T05:24:47.236Z,2.93
2018-05-08T05:27:16.167Z,3.30
2018-05-08T05:29:46.603Z,2.60
2018-05-08T05:32:16.296Z,2.83
2018-05-08T05:34:45.206Z,2.60
2018-05-08T05:37:14.252Z,3.10
2018-05-08T05:39:43.652Z,3.23
2018-05-08T05:42:13.337Z,3.20
2018-05-08T05:44:42.250Z,3.03
2018-05-08T05:47:12.472Z,3.43
2018-05-08T05:49:42.533Z,3.40
2018-05-08T05:52:11.459Z,3.40
2018-05-08T05:54:40.759Z,3.50
2018-05-08T05:57:09.705Z,3.30
2018-05-08T05:59:38.627Z,2.87
2018-05-08T06:02:07.945Z,2.97
2018-05-08T06:04:38.364Z,3.07
2018-05-08T06:07:07.278Z,2.43
2018-05-08T06:09:36.618Z,3.37
2018-05-08T06:12:05.914Z,2.90
2018-05-08T06:14:34.824Z,2.67
2018-05-08T06:17:04.518Z,2.80
2018-05-08T06:19:33.440Z,3.20
2018-05-08T06:22:03.496Z,2.70
2018-05-08T06:24:33.538Z,3.23
2018-05-08T06:27:02.462Z,2.80
2018-05-08T06:29:33.051Z,2.57
2018-05-08T06:32:01.956Z,2.33
2018-05-08T06:34:30.862Z,2.83
2018-05-08T06:36:59.784Z,3.00
2018-05-08T06:39:29.574Z,2.90
2018-05-08T06:41:59.874Z,2.90
2018-05-08T06:44:28.801Z,3.13
2018-05-08T06:46:58.488Z,2.37
2018-05-08T06:49:27.410Z,2.80
2018-05-08T06:51:57.481Z,3.13
2018-05-08T06:54:26.401Z,3.00
2018-05-08T06:56:55.338Z,2.30
2018-05-08T06:59:25.611Z,2.57
2018-05-08T07:01:55.821Z,2.40
2018-05-08T07:04:24.730Z,2.60
2018-05-08T07:06:54.441Z,2.10
2018-05-08T07:09:24.151Z,2.67
2018-05-08T07:11:54.420Z,2.30
2018-05-08T07:14:24.606Z,2.37
2018-05-08T07:16:53.534Z,2.50
2018-05-08T07:19:23.580Z,2.33
2018-05-08T07:21:53.868Z,2.37
2018-05-08T07:24:23.328Z,2.50
2018-05-08T07:26:53.006Z,2.73
2018-05-08T07:29:23.462Z,2.17
2018-05-08T07:31:53.551Z,2.20
2018-05-08T07:34:23.868Z,2.80
2018-05-08T07:36:52.560Z,2.40
2018-05-08T07:39:22.836Z,2.00
2018-05-08T07:41:51.544Z,2.53
2018-05-08T07:44:20.474Z,2.23
2018-05-08T07:46:50.162Z,2.97
2018-05-08T07:49:19.096Z,2.47
2018-05-08T07:51:48.472Z,2.23
2018-05-08T07:54:18.110Z,2.70
2018-05-08T07:56:47.004Z,2.00
2018-05-08T07:59:16.378Z,2.40
2018-05-08T08:01:45.667Z,2.60
2018-05-08T08:04:14.589Z,2.47
2018-05-08T08:06:44.269Z,2.27
2018-05-08T08:09:13.584Z,2.10
2018-05-08T08:11:43.845Z,1.90
2018-05-08T08:14:12.572Z,2.10
2018-05-08T08:16:41.480Z,2.10
2018-05-08T08:19:11.769Z,1.80
2018-05-08T08:21:40.479Z,1.80
2018-05-08T08:24:10.540Z,2.23
2018-05-08T08:26:39.484Z,1.73
2018-05-08T08:29:09.544Z,2.00
2018-05-08T08:31:39.616Z,1.43
2018-05-08T08:34:09.288Z,1.57
2018-05-08T08:36:38.212Z,1.80
2018-05-08T08:39:07.910Z,2.03
2018-05-08T08:41:37.582Z,2.13
2018-05-08T08:44:07.342Z,1.40
2018-05-08T08:46:37.911Z,1.60
2018-05-08T08:49:08.400Z,1.93
2018-05-08T08:51:38.665Z,1.90
2018-05-08T08:54:07.353Z,1.73
2018-05-08T08:56:36.287Z,1.37
2018-05-08T08:59:05.963Z,1.50
2018-05-08T09:01:35.649Z,1.90
2018-05-08T09:04:05.993Z,1.40
2018-05-08T09:06:35.025Z,1.20
2018-05-08T09:09:05.271Z,1.30
2018-05-08T09:11:35.582Z,1.60
2018-05-08T09:14:05.930Z,1.20
2018-05-08T09:16:34.856Z,1.57
2018-05-08T09:19:04.509Z,1.60
2018-05-08T09:21:33.437Z,1.23
2018-05-08T09:24:03.684Z,1.60
2018-05-08T09:26:32.395Z,1.20
2018-05-08T09:29:02.073Z,1.87
2018-05-08T09:31:31.093Z,1.30
2018-05-08T09:34:00.373Z,1.53
2018-05-08T09:36:29.284Z,1.50
2018-05-08T09:38:58.987Z,1.30
2018-05-08T09:41:28.296Z,1.40
2018-05-08T09:43:58.349Z,1.27
2018-05-08T09:46:27.281Z,1.30
2018-05-08T09:48:56.594Z,1.10
2018-05-08T09:51:26.276Z,1.27
2018-05-08T09:53:55.570Z,1.50
2018-05-08T09:56:24.494Z,1.17
2018-05-08T09:58:54.729Z,1.37
2018-05-08T10:01:24.801Z,1.30
2018-05-08T10:03:54.260Z,1.10
2018-05-08T10:06:23.192Z,1.17
2018-05-08T10:08:52.088Z,0.90
2018-05-08T10:11:21.010Z,1.13
2018-05-08T10:13:51.117Z,0.80
2018-05-08T10:16:20.031Z,1.17
2018-05-08T10:18:49.351Z,1.30
2018-05-08T10:21:18.285Z,1.20
2018-05-08T10:23:47.181Z,1.27
2018-05-08T10:26:16.091Z,1.23
2018-05-08T10:28:46.355Z,1.10
2018-05-08T10:31:15.471Z,0.93
2018-05-08T10:33:45.509Z,1.20
2018-05-08T10:36:15.201Z,1.17
2018-05-08T10:38:44.491Z,1.03
2018-05-08T10:41:13.427Z,1.10
2018-05-08T10:43:43.670Z,0.90
2018-05-08T10:46:12.381Z,1.00
2018-05-08T10:48:41.289Z,1.10
2018-05-08T10:51:10.221Z,1.60
2018-05-08T10:53:39.133Z,1.20
2018-05-08T10:56:08.073Z,1.20
2018-05-08T10:58:38.333Z,1.10
2018-05-08T11:01:07.491Z,1.40
2018-05-08T11:03:36.389Z,1.10
2018-05-08T11:06:06.497Z,1.10
2018-05-08T11:08:35.401Z,1.20
2018-05-08T11:11:05.063Z,1.53
2018-05-08T11:13:34.747Z,1.57
2018-05-08T11:16:04.433Z,1.30
2018-05-08T11:18:34.493Z,1.07
2018-05-08T11:21:03.385Z,1.23
2018-05-08T11:23:32.718Z,1.20
2018-05-08T11:26:02.481Z,1.03
2018-05-08T11:28:31.411Z,1.00
2018-05-08T11:31:02.365Z,1.10
2018-05-08T11:33:32.419Z,1.00
2018-05-08T11:36:02.082Z,1.27
2018-05-08T11:38:31.774Z,1.40
2018-05-08T11:41:01.189Z,1.10
2018-05-08T11:43:31.253Z,1.07
2018-05-08T11:46:00.182Z,1.00
2018-05-08T11:48:29.495Z,0.90
2018-05-08T11:50:59.551Z,1.07
2018-05-08T11:53:28.881Z,1.00
2018-05-08T11:55:57.779Z,1.37
2018-05-08T11:58:26.709Z,1.30
2018-05-08T12:00:55.684Z,1.30
2018-05-08T12:03:25.694Z,1.20
2018-05-08T12:05:55.353Z,1.40
2018-05-08T12:08:25.733Z,1.07
2018-05-08T12:10:55.541Z,1.13
2018-05-08T12:13:25.240Z,1.00
2018-05-08T12:15:54.135Z,0.90
2018-05-08T12:18:23.831Z,1.00
2018-05-08T12:20:54.077Z,0.80
2018-05-08T12:23:22.783Z,0.90
2018-05-08T12:25:51.697Z,0.90
2018-05-08T12:28:20.605Z,1.03
2018-05-08T12:30:49.529Z,1.00
2018-05-08T12:33:19.231Z,1.13
2018-05-08T12:35:48.913Z,1.00
2018-05-08T12:38:17.817Z,1.00
2018-05-08T12:40:47.527Z,1.20
2018-05-08T12:43:17.951Z,1.23
2018-05-08T12:45:46.849Z,1.50
2018-05-08T12:48:17.451Z,1.30
2018-05-08T12:50:46.932Z,0.90
2018-05-08T12:53:15.861Z,1.07
2018-05-08T12:55:44.757Z,1.40
2018-05-08T12:58:14.453Z,1.17
2018-05-08T13:00:43.351Z,1.40
2018-05-08T13:03:12.281Z,1.00
2018-05-08T13:05:41.204Z,1.20
2018-05-08T13:08:10.126Z,1.40
2018-05-08T13:10:39.039Z,1.17
2018-05-08T13:13:09.076Z,1.50
2018-05-08T13:15:39.361Z,1.33
2018-05-08T13:18:08.061Z,1.20
2018-05-08T13:20:37.377Z,1.40
2018-05-08T13:23:06.657Z,1.43
2018-05-08T13:25:36.322Z,1.20
2018-05-08T13:28:05.669Z,1.23
2018-05-08T13:30:35.337Z,1.40
2018-05-08T13:33:04.635Z,1.20
2018-05-08T13:35:34.293Z,1.40
2018-05-08T13:38:04.681Z,1.37
2018-05-08T13:40:33.589Z,1.30
2018-05-08T13:43:03.267Z,1.00
2018-05-08T13:45:33.696Z,1.17
2018-05-08T13:48:02.605Z,1.10
2018-05-08T13:50:33.247Z,1.10
2018-05-08T13:53:02.923Z,1.00
2018-05-08T13:55:31.843Z,0.90
2018-05-08T13:58:01.880Z,1.30
2018-05-08T14:00:32.311Z,1.00
2018-05-08T14:03:02.353Z,0.80
2018-05-08T14:05:32.639Z,1.27
2018-05-08T14:08:02.197Z,1.13
2018-05-08T14:10:31.121Z,1.00
2018-05-08T14:13:01.417Z,0.90
2018-05-08T14:15:30.135Z,1.10
2018-05-08T14:18:00.278Z,0.70
2018-05-08T14:20:29.216Z,1.10
2018-05-08T14:22:59.627Z,0.70
2018-05-08T14:25:28.567Z,0.90
2018-05-08T14:27:58.244Z,1.03
2018-05-08T14:30:27.170Z,0.93
2018-05-08T14:32:57.581Z,0.90
2018-05-08T14:35:28.000Z,1.00
2018-05-08T14:37:57.677Z,0.90
2018-05-08T14:40:28.133Z,0.90
2018-05-08T14:42:57.423Z,1.07
2018-05-08T14:45:26.719Z,0.87
2018-05-08T14:47:56.788Z,1.07
2018-05-08T14:50:26.829Z,0.80
2018-05-08T14:52:57.101Z,1.10
2018-05-08T14:55:26.569Z,1.00
2018-05-08T14:57:55.503Z,0.97
2018-05-08T15:00:24.411Z,1.30
2018-05-08T15:02:53.333Z,1.13
2018-05-08T15:05:23.379Z,1.00
2018-05-08T15:07:53.061Z,1.00
2018-05-08T15:10:23.349Z,1.00
2018-05-08T15:12:52.086Z,1.13
2018-05-08T15:15:21.371Z,0.90
2018-05-08T15:17:50.289Z,0.90
2018-05-08T15:20:20.543Z,1.20
2018-05-08T15:22:49.259Z,0.90
2018-05-08T15:25:18.176Z,0.87
2018-05-08T15:27:48.601Z,1.10
2018-05-08T15:30:18.849Z,0.80
2018-05-08T15:32:47.565Z,1.20
2018-05-08T15:35:16.483Z,1.30
2018-05-08T15:37:46.741Z,0.80
2018-05-08T15:40:15.461Z,1.20
2018-05-08T15:42:44.386Z,1.00
2018-05-08T15:45:14.839Z,0.90
2018-05-08T15:47:44.512Z,1.30
2018-05-08T15:50:14.554Z,1.27
2018-05-08T15:52:44.246Z,1.10
2018-05-08T15:55:14.583Z,1.07
2018-05-08T15:57:43.225Z,1.17
2018-05-08T16:00:14.233Z,1.40
2018-05-08T16:02:44.512Z,0.90
2018-05-08T16:05:14.705Z,1.20
2018-05-08T16:07:43.638Z,0.97
2018-05-08T16:10:13.744Z,0.93
2018-05-08T16:12:42.659Z,1.40
2018-05-08T16:15:11.573Z,1.10
2018-05-08T16:17:41.955Z,1.13
2018-05-08T16:20:11.427Z,1.17
2018-05-08T16:22:41.108Z,1.00
2018-05-08T16:25:10.792Z,1.00
2018-05-08T16:27:39.711Z,0.97
2018-05-08T16:30:10.267Z,1.10
2018-05-08T16:32:39.509Z,0.73
2018-05-08T16:35:09.560Z,1.17
2018-05-08T16:37:38.478Z,1.10
2018-05-08T16:40:08.890Z,1.47
2018-05-08T16:42:37.794Z,1.83
2018-05-08T16:45:07.119Z,1.37
2018-05-08T16:47:37.438Z,1.23
2018-05-08T16:50:06.831Z,2.90
2018-05-08T16:52:36.519Z,4.57
2018-05-08T16:55:05.427Z,4.67
2018-05-08T16:57:35.490Z,1.97
2018-05-08T17:00:04.391Z,1.60
2018-05-08T17:02:33.315Z,1.03
2018-05-08T17:05:03.739Z,1.40
2018-05-08T17:07:32.651Z,1.40
2018-05-08T17:10:02.926Z,1.20
2018-05-08T17:12:31.636Z,1.33
2018-05-08T17:15:00.570Z,1.00
2018-05-08T17:17:29.500Z,1.30
2018-05-08T17:19:59.745Z,1.20
2018-05-08T17:22:29.705Z,1.80
2018-05-08T17:24:59.377Z,1.10
2018-05-08T17:27:29.072Z,3.30
2018-05-08T17:29:59.121Z,1.27
2018-05-08T17:32:28.046Z,1.20
2018-05-08T17:34:57.366Z,1.10
2018-05-08T17:37:26.302Z,0.97
2018-05-08T17:39:55.215Z,1.13
2018-05-08T17:42:24.127Z,1.37
2018-05-08T17:44:54.567Z,1.17
2018-05-08T17:47:23.485Z,1.10
2018-05-08T17:49:53.529Z,1.10
2018-05-08T17:52:23.219Z,1.10
2018-05-08T17:54:53.477Z,1.20
2018-05-08T17:57:22.185Z,2.47
2018-05-08T17:59:52.459Z,1.30
2018-05-08T18:02:21.545Z,1.20
2018-05-08T18:04:51.253Z,1.20
2018-05-08T18:07:20.181Z,1.30
2018-05-08T18:09:50.007Z,1.10
2018-05-08T18:12:20.275Z,1.20
2018-05-08T18:14:49.379Z,1.00
2018-05-08T18:17:19.110Z,1.37
2018-05-08T18:19:49.341Z,1.30
2018-05-08T18:22:19.399Z,1.27
2018-05-08T18:24:48.091Z,1.20
2018-05-08T18:27:18.405Z,1.03
2018-05-08T18:29:47.467Z,1.40
2018-05-08T18:32:16.396Z,1.37
2018-05-08T18:34:46.437Z,1.30
2018-05-08T18:37:15.360Z,1.27
2018-05-08T18:39:44.274Z,1.20
2018-05-08T18:42:13.213Z,1.03
2018-05-08T18:44:43.489Z,1.10
2018-05-08T18:47:13.336Z,1.00
2018-05-08T18:49:43.774Z,1.20
2018-05-08T18:52:14.038Z,1.27
2018-05-08T18:54:44.065Z,1.00
2018-05-08T18:57:14.129Z,1.20
2018-05-08T18:59:43.635Z,0.80
2018-05-08T19:02:12.990Z,1.07
2018-05-08T19:04:42.335Z,1.30
2018-05-08T19:07:12.587Z,1.30
2018-05-08T19:09:42.526Z,1.30
2018-05-08T19:12:11.429Z,1.03
2018-05-08T19:14:41.711Z,1.20
2018-05-08T19:17:11.801Z,1.40
2018-05-08T19:19:47.621Z,1.20
2018-05-08T19:22:17.681Z,1.57
2018-05-08T19:24:47.438Z,1.10
2018-05-08T19:27:16.739Z,1.20
2018-05-08T19:29:52.122Z,1.20
2018-05-08T19:32:21.044Z,1.10
2018-05-08T19:34:56.935Z,1.30
2018-05-08T19:37:32.005Z,1.10
2018-05-08T19:40:02.439Z,1.07
2018-05-08T19:42:31.753Z,1.00
2018-05-08T19:45:01.113Z,0.90
2018-05-08T19:47:31.519Z,1.10
2018-05-08T19:50:01.565Z,1.07
2018-05-08T19:52:31.641Z,1.20
2018-05-08T19:55:01.892Z,1.33
2018-05-08T19:57:30.649Z,1.03
2018-05-08T20:00:00.900Z,1.00
2018-05-08T20:02:30.766Z,1.40
2018-05-08T20:05:00.821Z,1.73
2018-05-08T20:07:31.083Z,1.30
2018-05-08T20:09:59.786Z,1.17
2018-05-08T20:12:30.095Z,1.20
2018-05-08T20:15:00.146Z,1.50
2018-05-08T20:17:30.188Z,1.10
2018-05-08T20:20:00.248Z,1.40
2018-05-08T20:22:28.970Z,1.20
2018-05-08T20:24:59.214Z,1.43
2018-05-08T20:27:27.909Z,1.30
2018-05-08T20:29:57.685Z,1.50
2018-05-08T20:32:27.002Z,1.37
2018-05-08T20:34:55.903Z,1.53
2018-05-08T20:37:24.821Z,1.30
2018-05-08T20:39:54.875Z,1.27
2018-05-08T20:42:23.809Z,2.00
2018-05-08T20:44:53.491Z,1.30
2018-05-08T20:47:22.405Z,1.40
2018-05-08T20:49:52.807Z,1.43
2018-05-08T20:52:23.477Z,1.40
2018-05-08T20:54:53.899Z,1.23
2018-05-08T20:57:22.814Z,1.57
2018-05-08T20:59:51.701Z,1.27
2018-05-08T21:02:22.005Z,1.37
2018-05-08T21:04:50.729Z,1.37
2018-05-08T21:07:20.034Z,1.50
2018-05-08T21:09:52.571Z,2.00
2018-05-08T21:12:21.483Z,1.60
2018-05-08T21:14:50.387Z,1.50
2018-05-08T21:17:20.084Z,1.20
2018-05-08T21:19:49.011Z,1.33
2018-05-08T21:22:18.320Z,1.47
2018-05-08T21:24:47.215Z,1.60
2018-05-08T21:27:16.145Z,1.57
2018-05-08T21:29:50.784Z,1.50
2018-05-08T21:32:20.487Z,1.77
2018-05-08T21:34:49.389Z,1.30
2018-05-08T21:37:19.823Z,1.50
2018-05-08T21:39:49.513Z,1.97
2018-05-08T21:42:18.419Z,1.53
2018-05-08T21:44:50.287Z,1.60
2018-05-08T21:47:19.593Z,1.90
2018-05-08T21:49:48.506Z,1.83
2018-05-08T21:52:17.425Z,1.50
2018-05-08T21:54:46.329Z,1.30
2018-05-08T21:57:16.376Z,1.80
2018-05-08T21:59:46.415Z,1.27
2018-05-08T22:02:15.362Z,1.57
2018-05-08T22:04:45.606Z,1.50
2018-05-08T22:07:15.834Z,1.80
2018-05-08T22:09:46.105Z,1.13
2018-05-08T22:12:14.795Z,1.40
2018-05-08T22:14:43.708Z,1.43
2018-05-08T22:17:13.404Z,1.70
2018-05-08T22:19:42.402Z,1.30
2018-05-08T22:22:11.300Z,1.77
2018-05-08T22:24:40.628Z,1.70
2018-05-08T22:27:10.305Z,1.60
2018-05-08T22:29:39.986Z,1.80
2018-05-08T22:32:08.876Z,1.90
2018-05-08T22:34:39.154Z,1.70
2018-05-08T22:37:07.852Z,1.90
2018-05-08T22:39:37.547Z,1.90
2018-05-08T22:42:07.584Z,1.90
2018-05-08T22:44:36.498Z,1.60
2018-05-08T22:47:05.405Z,1.70
2018-05-08T22:49:34.314Z,2.20
2018-05-08T22:52:04.571Z,1.83
2018-05-08T22:54:33.272Z,1.83
2018-05-08T22:57:02.183Z,1.70
2018-05-08T22:59:32.463Z,1.60
2018-05-08T23:02:01.150Z,1.30
2018-05-08T23:04:30.848Z,1.40
2018-05-08T23:06:59.748Z,1.73
2018-05-08T23:09:28.685Z,1.83
2018-05-08T23:11:57.584Z,2.00
2018-05-08T23:14:27.868Z,1.53
2018-05-08T23:16:56.565Z,1.43
2018-05-08T23:19:26.837Z,1.90
2018-05-08T23:21:55.543Z,2.20
2018-05-08T23:24:24.470Z,1.87
2018-05-08T23:26:53.365Z,1.77
2018-05-08T23:29:23.644Z,1.70
2018-05-08T23:31:53.110Z,1.77
2018-05-08T23:34:22.434Z,1.93
2018-05-08T23:36:51.347Z,2.00
2018-05-08T23:39:20.277Z,1.83
2018-05-08T23:41:49.189Z,1.57
2018-05-08T23:44:18.509Z,2.03
2018-05-08T23:46:47.409Z,1.80
2018-05-08T23:49:16.323Z,1.87
2018-05-08T23:51:45.648Z,1.97
2018-05-08T23:54:15.346Z,2.40
2018-05-08T23:56:44.630Z,1.60
2018-05-08T23:59:13.946Z,2.10
